Impacts TAF Board INFO
FOR SITUATIONAL AWARENESS. NOT TO BE USED FOR FLIGHT PLANNING PURPOSES.
IDs:

KLAS - Las Vegas/McCarran I, NV, US

Issued at 2050 UTC 23 Jan 2017
Updated at 2056 UTC 23 Jan 2017
Potential Impact None Slight Moderate High
Time1956Z 23/21Z 23/22Z 23/23Z 24/00Z 24/01Z 24/02Z 24/03Z 24/04Z 24/05Z 24/06Z 24/07Z 24/08Z 24/09Z
Type OBS PRVL PRVL PRVL PRVL PRVL PRVL PRVL PRVL PRVL PRVL PRVL PRVL PRVL
VIS 10 >6 >6 >6 >6 >6 >6 >6 >6 >6 >6 >6 >6 >6
CIG 220 150 150 150 150 150 90 90 90 90 90 90 90 90
Cover BKN BKN BKN BKN BKN BKN BKN BKN BKN BKN BKN BKN BKN BKN
FltCat VFR VFR VFR VFR VFR VFR VFR VFR VFR VFR VFR VFR VFR VFR
WX -- -- -- -- -- -- VCSH VCSH VCSH VCSH VCSH VCSH VCSH VCSH
WDir 220 220 220 220 220 220 220 220 220 220 220 220 220 220
WSpd 22 20 20 20 20 20 11 11 11 11 11 11 11 11
WGst 29 30 30 30 30 30 -- -- -- -- -- -- -- --

Raw TAF
KLAS 232050Z 2321/2418 22020G30KT P6SM FEW040 SCT090 BKN150
  FM240200 22011KT P6SM VCSH SCT040 BKN090
  FM241000 22008KT P6SM FEW040 BKN090
  FM241600 22007KT P6SM FEW040 SCT090 SCT150


Raw METAR
KLAS 231956Z 22022G29KT 10SM FEW050 SCT090 SCT150 BKN220 10/M01 A2969 RMK AO2 PK WND 21029/1956 SLP051 SH DSNT W-NW T01001011
KLAS 231856Z 21012G23KT 10SM FEW070 SCT090 SCT150 10/M01 A2974 RMK AO2 SLP069 SH DSNT NW T01001011
KLAS 231756Z 21012G23KT 10SM FEW070 SCT090 BKN140 09/M01 A2977 RMK AO2 PK WND 23027/1740 SLP077 SH DSNT W AND NW 60001 T00941011 10100 20089 51018

METAR Board
Radar Display
Forecast Discussion

FOR SITUATIONAL AWARENESS. NOT TO BE USED FOR FLIGHT PLANNING PURPOSES.

Page loaded:  20:56 UTC  |   12:56 PM Pacific  |   01:56 PM Mountain  |   02:56 PM Central  |   03:56 PM Eastern

 

ADVISORIES

FORECASTS

FORECASTS

OBSERVATIONS

USER TOOLS

ABOUT US